Airfield :
LOGIN :

Register | Disclaimer

   EN    FR    IT 

 










Legend :    VFR   Marginal VFR   IFR   Intensive IFR   Very Intensive IFR
Visi :
Ceiling :
>= 8 km
>= 3000ft
5 to 8 km
1000 to 3000 ft
1500m to 5 km
500 to 1000 ft
800 to 1500m
200 to 500 ft
< 800m
< 200 ft
Symbols :   Thunderstorms  Fog  Heavy snow  Heavy precipitations  Wind > 20 kt
SIGMETs :     Misc.  Thunderstorms  Icing  Turbulence  Mountain Waves  Volcanic Ashes







- Airport Elevation : 194 ft


EBCV - Chièvres

CURRENT METAR :
  • 160155Z AUTO 18006KT 9999 OVC031/// 16/14 Q1018 BLU

EXPIRED METARs :
  • 160125Z AUTO 18005KT 9999 OVC031/// 16/14 Q1018 BLU
  • 160055Z AUTO 18004KT 9999 OVC029/// 17/15 Q1018 BLU
  • 160025Z AUTO 18005KT 9999 BKN029/// 16/14 Q1019 BLU
  • 152355Z AUTO 19004KT 9999 NCD 14/13 Q1019 BLU
  • 152325Z AUTO 18005KT 9999 NCD 15/14 Q1019 BLU
  • 152255Z AUTO 18005KT 9999 FEW028/// 16/14 Q1019 BLU

TAF TAF EBCV
Valid from the 15 at 19:00 until the 16 at 07:00 UTC


151541Z 1519/1607 24010KT 9999 BKN030
BECMG 1520/1522 9999 SCT030 SCT140
BECMG 1600/1602 18006KT
TEMPO 1603/1607 4000 BR SCT012 BY EBWM
No reported NOTAMs for that airfield.



MET'MAP, your aeronautical weather chart ! - Copyright ORBIFLY December 2007 - Disclaimer

ORBIFLY MET'MAP TEAM :

Programming & Development : Alexandra Zaïnal
Concept & Development : Baudouin d'Aumeries
Co-Development & Prog : Marc-Olivier Méhu
Technical & hardware support : Manuel Goepfert

Contact : metmap@orbifly.com




SOURCES & CREDITS :

   NOAA